createdAt,value
2018-07-05T00:01:18.913Z,5.23
2018-07-05T00:04:03.914Z,5.43
2018-07-05T00:06:47.517Z,5.63
2018-07-05T00:09:27.101Z,6.40
2018-07-05T00:12:06.989Z,5.80
2018-07-05T00:14:47.653Z,6.13
2018-07-05T00:17:29.655Z,7.13
2018-07-05T00:20:12.055Z,7.47
2018-07-05T00:22:51.886Z,6.93
2018-07-05T00:25:33.642Z,7.40
2018-07-05T00:28:13.468Z,7.33
2018-07-05T00:30:53.394Z,6.27
2018-07-05T00:33:33.352Z,5.73
2018-07-05T00:36:17.784Z,6.30
2018-07-05T00:38:59.634Z,6.13
2018-07-05T00:41:45.321Z,6.37
2018-07-05T00:44:26.979Z,5.77
2018-07-05T00:47:09.658Z,6.00
2018-07-05T00:49:51.184Z,6.47
2018-07-05T00:52:30.894Z,5.97
2018-07-05T00:55:10.534Z,6.00
2018-07-05T00:57:50.194Z,5.60
2018-07-05T01:00:29.956Z,5.97
2018-07-05T01:03:12.861Z,5.83
2018-07-05T01:05:56.226Z,5.70
2018-07-05T01:08:32.110Z,6.30
2018-07-05T01:11:11.680Z,6.13
2018-07-05T01:13:54.124Z,6.00
2018-07-05T01:16:39.376Z,6.20
2018-07-05T01:19:22.959Z,5.93
2018-07-05T01:22:05.732Z,6.53
2018-07-05T01:24:50.113Z,7.10
2018-07-05T01:27:29.874Z,6.97
2018-07-05T01:30:10.518Z,7.47
2018-07-05T01:32:47.756Z,6.90
2018-07-05T01:35:28.655Z,5.83
2018-07-05T01:38:14.050Z,6.93
2018-07-05T01:43:46.499Z,5.57
2018-07-05T01:46:26.514Z,5.83
2018-07-05T01:49:19.094Z,5.07
2018-07-05T01:52:03.771Z,5.60
2018-07-05T01:54:44.418Z,5.67
2018-07-05T01:57:24.348Z,5.70
2018-07-05T02:00:09.519Z,5.83
2018-07-05T02:02:51.899Z,5.33
2018-07-05T02:05:34.493Z,6.20
2018-07-05T02:08:14.578Z,5.57
2018-07-05T02:10:54.298Z,4.57
2018-07-05T02:13:34.060Z,5.00
2018-07-05T02:16:15.724Z,4.90
2018-07-05T02:18:56.394Z,5.63
2018-07-05T02:21:37.145Z,5.07
2018-07-05T02:24:25.928Z,5.10
2018-07-05T02:27:06.774Z,5.20
2018-07-05T02:29:47.343Z,4.40
2018-07-05T02:32:29.536Z,5.07
2018-07-05T02:35:11.043Z,4.67
2018-07-05T02:37:56.365Z,4.93
2018-07-05T02:40:41.453Z,4.30
2018-07-05T02:46:21.385Z,4.93
2018-07-05T02:49:01.262Z,5.10
2018-07-05T02:51:41.033Z,4.90
2018-07-05T02:54:15.103Z,5.30
2018-07-05T02:56:55.333Z,4.97
2018-07-05T02:59:38.568Z,4.90
2018-07-05T03:02:21.381Z,5.33
2018-07-05T03:05:02.389Z,4.90
2018-07-05T03:07:48.810Z,5.20
2018-07-05T03:10:34.205Z,5.00
2018-07-05T03:13:09.394Z,5.10
2018-07-05T03:15:52.319Z,5.30
2018-07-05T03:21:25.073Z,5.67
2018-07-05T03:24:06.849Z,6.03
2018-07-05T03:26:47.323Z,6.00
2018-07-05T03:29:30.585Z,5.80
2018-07-05T03:32:11.202Z,5.63
2018-07-05T03:34:55.724Z,6.20
2018-07-05T03:37:35.402Z,6.20
2018-07-05T03:40:16.017Z,6.57
2018-07-05T03:42:55.935Z,5.53
2018-07-05T03:45:39.593Z,5.50
2018-07-05T03:48:20.235Z,6.00
2018-07-05T03:51:11.171Z,5.77
2018-07-05T03:56:45.557Z,5.53
2018-07-05T04:02:18.650Z,5.53
2018-07-05T04:04:58.383Z,5.67
2018-07-05T04:07:38.141Z,4.97
2018-07-05T04:10:18.766Z,5.70
2018-07-05T04:13:00.220Z,5.70
2018-07-05T04:15:41.017Z,5.77
2018-07-05T04:18:20.794Z,5.60
2018-07-05T04:21:00.466Z,5.63
2018-07-05T04:23:40.176Z,6.10
2018-07-05T04:26:21.931Z,6.27
2018-07-05T04:29:06.931Z,5.70
2018-07-05T04:31:46.670Z,5.83
2018-07-05T04:34:30.098Z,6.07
2018-07-05T04:37:13.760Z,6.10
2018-07-05T04:39:57.073Z,6.53
2018-07-05T04:42:37.857Z,5.90
2018-07-05T04:45:18.568Z,6.53
2018-07-05T04:47:59.856Z,6.37
2018-07-05T04:50:42.690Z,6.63
2018-07-05T04:53:26.672Z,6.70
2018-07-05T04:56:06.932Z,6.87
2018-07-05T04:58:48.051Z,6.53
2018-07-05T05:01:28.352Z,6.97
2018-07-05T05:04:08.960Z,8.77
2018-07-05T05:06:50.740Z,6.90
2018-07-05T05:09:33.800Z,6.83
2018-07-05T05:12:14.304Z,6.43
2018-07-05T05:17:48.472Z,6.80
2018-07-05T05:20:29.302Z,6.63
2018-07-05T05:23:09.832Z,7.10
2018-07-05T05:25:52.724Z,7.27
2018-07-05T05:28:27.884Z,6.77
2018-07-05T05:34:00.934Z,7.30
2018-07-05T05:36:43.807Z,7.10
2018-07-05T05:39:23.582Z,7.20
2018-07-05T05:42:03.168Z,7.23
2018-07-05T05:44:45.013Z,6.73
2018-07-05T05:47:25.016Z,7.60
2018-07-05T05:50:06.098Z,7.63
2018-07-05T05:52:46.106Z,6.30
2018-07-05T05:55:27.998Z,7.30
2018-07-05T05:58:11.377Z,7.40
2018-07-05T06:00:53.098Z,6.83
2018-07-05T06:03:32.902Z,6.83
2018-07-05T06:06:18.548Z,7.10
2018-07-05T06:08:59.243Z,6.83
2018-07-05T06:11:39.710Z,6.43
2018-07-05T06:14:22.979Z,6.03
2018-07-05T06:17:04.776Z,7.90
2018-07-05T06:19:48.870Z,6.63
2018-07-05T06:22:28.790Z,6.80
2018-07-05T06:25:08.988Z,6.93
2018-07-05T06:27:50.719Z,7.10
2018-07-05T06:30:34.592Z,6.90
2018-07-05T06:33:15.106Z,7.53
2018-07-05T06:35:55.495Z,7.30
2018-07-05T06:38:38.422Z,7.40
2018-07-05T06:41:19.608Z,7.70
2018-07-05T06:44:01.604Z,6.93
2018-07-05T06:46:41.422Z,6.87
2018-07-05T06:49:22.604Z,7.03
2018-07-05T06:52:03.472Z,6.53
2018-07-05T06:54:48.246Z,6.63
2018-07-05T06:57:28.988Z,7.37
2018-07-05T07:00:08.642Z,6.43
2018-07-05T07:02:48.401Z,7.67
2018-07-05T07:05:28.914Z,7.37
2018-07-05T07:13:56.755Z,6.53
2018-07-05T07:16:38.410Z,6.73
2018-07-05T07:19:25.224Z,7.00
2018-07-05T07:22:11.140Z,6.50
2018-07-05T07:24:51.762Z,7.30
2018-07-05T07:27:36.670Z,7.30
2018-07-05T07:30:16.355Z,7.07
2018-07-05T07:32:59.993Z,6.73
2018-07-05T07:35:43.492Z,7.57
2018-07-05T07:38:25.790Z,7.50
2018-07-05T07:41:06.402Z,7.57
2018-07-05T07:43:42.628Z,7.30
2018-07-05T07:46:12.002Z,7.43
2018-07-05T07:48:39.416Z,7.07
2018-07-05T07:51:06.844Z,7.87
2018-07-05T07:53:35.250Z,7.20
2018-07-05T07:56:02.712Z,7.50
2018-07-05T07:58:47.610Z,7.20
2018-07-05T08:01:33.497Z,6.63
2018-07-05T08:04:04.111Z,6.40
2018-07-05T08:06:31.557Z,6.70
2018-07-05T08:08:59.056Z,6.50
2018-07-05T08:11:27.407Z,6.80
2018-07-05T08:13:56.728Z,6.17
2018-07-05T08:16:25.112Z,6.83
2018-07-05T08:18:53.321Z,6.37
2018-07-05T08:21:20.648Z,6.80
2018-07-05T08:24:03.014Z,6.90
2018-07-05T08:26:31.522Z,6.70
2018-07-05T08:29:02.654Z,6.67
2018-07-05T08:31:33.224Z,6.63
2018-07-05T08:36:51.444Z,5.33
2018-07-05T08:39:25.000Z,6.23
2018-07-05T08:41:52.916Z,5.93
2018-07-05T08:44:22.164Z,6.70
2018-07-05T08:46:54.214Z,6.67
2018-07-05T08:49:33.444Z,6.13
2018-07-05T08:52:11.469Z,6.60
2018-07-05T08:54:40.889Z,6.33
2018-07-05T08:57:09.190Z,4.83
2018-07-05T08:59:36.988Z,4.77
2018-07-05T09:02:06.313Z,4.50
2018-07-05T09:04:34.095Z,3.87
2018-07-05T09:07:01.483Z,3.77
2018-07-05T09:09:28.990Z,4.77
2018-07-05T09:12:07.126Z,4.17
2018-07-05T09:14:38.095Z,4.63
2018-07-05T09:17:09.482Z,5.60
2018-07-05T09:19:36.932Z,4.83
2018-07-05T09:22:04.378Z,4.90
2018-07-05T09:24:31.840Z,4.83
2018-07-05T09:26:59.312Z,5.30
2018-07-05T09:29:35.696Z,4.83
2018-07-05T09:32:26.415Z,4.80
2018-07-05T09:34:53.708Z,5.00
2018-07-05T09:37:25.422Z,5.87
2018-07-05T09:39:54.686Z,4.73
2018-07-05T09:42:22.129Z,5.07
2018-07-05T09:44:51.433Z,4.73
2018-07-05T09:47:18.937Z,4.80
2018-07-05T09:49:46.406Z,4.80
2018-07-05T09:52:18.399Z,5.80
2018-07-05T09:54:47.788Z,4.87
2018-07-05T09:57:18.856Z,4.77
2018-07-05T09:59:48.206Z,4.60
2018-07-05T10:02:17.849Z,4.87
2018-07-05T10:04:46.206Z,5.60
2018-07-05T10:07:17.012Z,5.07
2018-07-05T10:09:44.470Z,4.70
2018-07-05T10:12:11.920Z,5.53
2018-07-05T10:14:41.114Z,5.43
2018-07-05T10:17:15.102Z,5.73
2018-07-05T10:19:43.535Z,5.70
2018-07-05T10:22:11.939Z,5.67
2018-07-05T10:24:39.349Z,4.97
2018-07-05T10:27:07.635Z,5.53
2018-07-05T10:29:47.353Z,5.57
2018-07-05T10:32:27.134Z,5.63
2018-07-05T10:35:16.450Z,5.37
2018-07-05T10:37:45.816Z,5.57
2018-07-05T10:40:25.666Z,6.00
2018-07-05T10:43:05.588Z,5.53
2018-07-05T10:45:47.332Z,5.60
2018-07-05T10:48:26.950Z,5.53
2018-07-05T10:51:00.610Z,5.17
2018-07-05T10:53:41.843Z,6.17
2018-07-05T10:56:21.682Z,5.40
2018-07-05T10:59:01.372Z,4.87
2018-07-05T11:01:45.664Z,4.77
2018-07-05T11:04:26.443Z,5.03
2018-07-05T11:07:08.206Z,5.93
2018-07-05T11:09:49.232Z,6.00
2018-07-05T11:12:31.910Z,6.13
2018-07-05T11:15:13.701Z,6.40
2018-07-05T11:17:53.801Z,4.90
2018-07-05T11:20:37.773Z,5.13
2018-07-05T11:26:10.628Z,4.17
2018-07-05T11:28:51.297Z,3.87
2018-07-05T11:31:33.834Z,4.53
2018-07-05T11:34:17.778Z,4.90
2018-07-05T11:36:57.528Z,5.00
2018-07-05T11:39:41.160Z,4.30
2018-07-05T11:42:24.072Z,4.67
2018-07-05T11:45:03.806Z,4.40
2018-07-05T11:47:43.578Z,3.97
2018-07-05T11:50:23.194Z,3.80
2018-07-05T11:53:03.886Z,4.13
2018-07-05T11:55:37.488Z,3.93
2018-07-05T11:58:18.262Z,4.30
2018-07-05T12:01:00.069Z,4.37
2018-07-05T12:03:43.720Z,3.73
2018-07-05T12:06:26.666Z,5.30
2018-07-05T12:09:07.801Z,5.60
2018-07-05T12:11:50.236Z,5.30
2018-07-05T12:14:31.378Z,4.60
2018-07-05T12:17:11.182Z,4.67
2018-07-05T12:19:50.788Z,5.03
2018-07-05T12:22:31.610Z,5.33
2018-07-05T12:25:12.351Z,6.53
2018-07-05T12:27:52.080Z,5.63
2018-07-05T12:30:36.214Z,6.27
2018-07-05T12:33:29.570Z,6.93
2018-07-05T12:36:12.028Z,5.90
2018-07-05T12:38:51.830Z,6.23
2018-07-05T12:41:35.411Z,6.30
2018-07-05T12:44:14.977Z,5.83
2018-07-05T12:46:56.766Z,6.73
2018-07-05T12:49:36.617Z,6.60
2018-07-05T12:52:17.408Z,6.23
2018-07-05T12:55:01.338Z,7.03
2018-07-05T12:57:44.767Z,5.50
2018-07-05T13:00:27.336Z,5.93
2018-07-05T13:03:07.036Z,5.97
2018-07-05T13:08:40.924Z,5.13
2018-07-05T13:11:22.749Z,6.10
2018-07-05T13:14:16.075Z,5.80
2018-07-05T13:16:55.652Z,5.90
2018-07-05T13:19:36.597Z,5.87
2018-07-05T13:22:17.295Z,5.80
2018-07-05T13:25:02.218Z,5.93
2018-07-05T13:27:37.162Z,5.60
2018-07-05T13:30:20.350Z,5.63
2018-07-05T13:32:59.765Z,5.70
2018-07-05T13:35:39.444Z,5.93
2018-07-05T13:38:22.578Z,5.80
2018-07-05T13:41:02.362Z,5.67
2018-07-05T13:43:45.368Z,5.30
2018-07-05T13:46:24.994Z,5.13
2018-07-05T13:49:05.369Z,4.97
2018-07-05T13:51:45.028Z,4.77
2018-07-05T13:54:24.812Z,3.83
2018-07-05T13:57:09.632Z,3.30
2018-07-05T14:00:00.073Z,3.50
2018-07-05T14:02:41.951Z,3.10
2018-07-05T14:05:26.770Z,3.00
2018-07-05T14:08:07.450Z,2.90
2018-07-05T14:10:48.306Z,3.00
2018-07-05T14:13:30.308Z,3.40
2018-07-05T14:16:12.303Z,2.87
2018-07-05T14:18:52.262Z,2.70
2018-07-05T14:21:34.078Z,2.57
2018-07-05T14:24:16.594Z,2.70
2018-07-05T14:27:00.509Z,2.50
2018-07-05T14:29:41.304Z,2.63
2018-07-05T14:32:21.222Z,2.60
2018-07-05T14:35:02.796Z,2.70
2018-07-05T14:37:44.508Z,2.87
2018-07-05T14:40:28.015Z,3.10
2018-07-05T14:43:10.672Z,2.90
2018-07-05T14:45:51.972Z,2.60
2018-07-05T14:48:36.845Z,2.50
2018-07-05T14:51:20.231Z,2.93
2018-07-05T14:54:03.498Z,2.97
2018-07-05T14:56:48.288Z,2.70
2018-07-05T14:59:29.946Z,2.90
2018-07-05T15:02:10.035Z,3.63
2018-07-05T15:04:49.723Z,3.13
2018-07-05T15:07:30.382Z,2.90
2018-07-05T15:10:10.402Z,3.00
2018-07-05T15:12:50.208Z,2.83
2018-07-05T15:15:32.134Z,3.03
2018-07-05T15:18:12.976Z,2.80
2018-07-05T15:20:55.408Z,2.60
2018-07-05T15:23:34.965Z,3.27
2018-07-05T15:26:15.646Z,2.43
2018-07-05T15:29:00.336Z,2.57
2018-07-05T15:31:42.242Z,2.50
2018-07-05T15:34:22.127Z,3.13
2018-07-05T15:37:02.458Z,2.50
2018-07-05T15:39:44.598Z,2.50
2018-07-05T15:42:25.328Z,2.77
2018-07-05T15:45:08.434Z,2.63
2018-07-05T15:47:51.926Z,2.13
2018-07-05T15:50:32.032Z,2.53
2018-07-05T15:53:12.834Z,2.60
2018-07-05T15:55:58.108Z,2.80
2018-07-05T15:58:39.851Z,2.47
2018-07-05T16:01:23.826Z,2.30
2018-07-05T16:04:04.979Z,2.50
2018-07-05T16:06:44.833Z,2.30
2018-07-05T16:09:24.534Z,2.70
2018-07-05T16:12:04.535Z,2.30
2018-07-05T16:14:47.357Z,2.33
2018-07-05T16:17:27.238Z,2.47
2018-07-05T16:20:06.795Z,1.90
2018-07-05T16:22:48.043Z,2.03
2018-07-05T16:25:29.164Z,2.00
2018-07-05T16:28:09.696Z,1.87
2018-07-05T16:30:51.314Z,1.90
2018-07-05T16:33:33.621Z,2.10
2018-07-05T16:36:08.352Z,1.70
2018-07-05T16:38:51.470Z,2.00
2018-07-05T16:41:32.272Z,1.60
2018-07-05T16:44:13.414Z,1.87
2018-07-05T16:46:58.900Z,1.60
2018-07-05T16:49:42.352Z,1.57
2018-07-05T16:52:24.134Z,1.60
2018-07-05T16:55:06.046Z,1.40
2018-07-05T16:57:45.754Z,1.70
2018-07-05T17:00:30.536Z,1.50
2018-07-05T17:03:10.480Z,1.40
2018-07-05T17:05:51.500Z,1.30
2018-07-05T17:08:36.330Z,1.40
2018-07-05T17:11:14.231Z,1.40
2018-07-05T17:13:55.928Z,1.40
2018-07-05T17:16:35.599Z,1.30
2018-07-05T17:19:15.319Z,1.50
2018-07-05T17:21:56.006Z,1.77
2018-07-05T17:24:36.910Z,1.73
2018-07-05T17:27:16.735Z,2.10
2018-07-05T17:29:58.341Z,2.00
2018-07-05T17:32:44.649Z,2.03
2018-07-05T17:35:29.399Z,1.70
2018-07-05T17:38:12.299Z,1.83
2018-07-05T17:40:52.471Z,1.70
2018-07-05T17:43:32.473Z,1.60
2018-07-05T17:46:13.230Z,1.40
2018-07-05T17:48:58.042Z,1.47
2018-07-05T17:51:33.528Z,1.50
2018-07-05T17:54:14.210Z,1.60
2018-07-05T17:56:54.131Z,1.67
2018-07-05T17:59:34.148Z,1.90
2018-07-05T18:02:13.828Z,1.57
2018-07-05T18:04:53.493Z,1.40
2018-07-05T18:07:35.161Z,1.57
2018-07-05T18:10:16.117Z,2.10
2018-07-05T18:12:55.870Z,1.70
2018-07-05T18:15:35.552Z,1.67
2018-07-05T18:18:19.472Z,1.50
2018-07-05T18:21:01.399Z,1.50
2018-07-05T18:23:41.323Z,1.70
2018-07-05T18:26:21.827Z,1.70
2018-07-05T18:29:03.417Z,1.40
2018-07-05T18:31:43.698Z,1.43
2018-07-05T18:34:24.497Z,1.50
2018-07-05T18:37:09.132Z,2.40
2018-07-05T18:39:49.725Z,1.87
2018-07-05T18:42:30.229Z,1.90
2018-07-05T18:45:11.239Z,1.80
2018-07-05T18:47:51.556Z,1.97
2018-07-05T18:50:31.310Z,1.93
2018-07-05T18:53:12.899Z,2.20
2018-07-05T18:55:52.702Z,2.10
2018-07-05T18:58:33.801Z,2.00
2018-07-05T19:01:14.571Z,1.97
2018-07-05T19:03:55.577Z,2.20
2018-07-05T19:06:35.263Z,1.90
2018-07-05T19:09:20.353Z,2.40
2018-07-05T19:12:00.948Z,2.03
2018-07-05T19:14:40.975Z,2.20
2018-07-05T19:17:20.842Z,2.10
2018-07-05T19:20:05.471Z,2.50
2018-07-05T19:22:48.736Z,2.23
2018-07-05T19:25:24.700Z,2.00
2018-07-05T19:28:08.044Z,2.67
2018-07-05T19:30:49.566Z,2.53
2018-07-05T19:33:30.374Z,2.60
2018-07-05T19:36:14.678Z,2.90
2018-07-05T19:38:59.267Z,3.20
2018-07-05T19:41:39.034Z,3.50
2018-07-05T19:44:18.958Z,2.93
2018-07-05T19:46:58.952Z,3.10
2018-07-05T19:49:39.696Z,3.40
2018-07-05T19:52:20.737Z,3.50
2018-07-05T19:55:01.691Z,4.00
2018-07-05T19:57:42.578Z,4.17
2018-07-05T20:00:22.174Z,3.80
2018-07-05T20:03:01.889Z,3.67
2018-07-05T20:05:41.645Z,4.30
2018-07-05T20:08:25.155Z,4.20
2018-07-05T20:11:04.827Z,4.23
2018-07-05T20:13:45.481Z,4.10
2018-07-05T20:16:25.920Z,3.90
2018-07-05T20:19:07.847Z,4.30
2018-07-05T20:21:41.712Z,4.20
2018-07-05T20:24:23.279Z,4.30
2018-07-05T20:27:06.790Z,4.00
2018-07-05T20:29:46.312Z,4.30
2018-07-05T20:32:27.203Z,4.20
2018-07-05T20:35:13.647Z,4.10
2018-07-05T20:37:54.351Z,4.47
2018-07-05T20:40:34.080Z,4.47
2018-07-05T20:43:14.910Z,4.57
2018-07-05T20:45:56.755Z,4.30
2018-07-05T20:48:43.413Z,4.27
2018-07-05T20:51:25.140Z,4.30
2018-07-05T20:54:04.771Z,4.50
2018-07-05T20:56:46.617Z,5.40
2018-07-05T20:59:26.471Z,5.10
2018-07-05T21:02:10.045Z,4.90
2018-07-05T21:04:50.815Z,5.10
2018-07-05T21:07:30.637Z,5.90
2018-07-05T21:10:10.541Z,6.27
2018-07-05T21:12:54.160Z,5.90
2018-07-05T21:18:28.307Z,6.30
2018-07-05T21:21:09.048Z,6.13
2018-07-05T21:23:54.606Z,6.33
2018-07-05T21:26:35.417Z,6.43
2018-07-05T21:29:15.223Z,5.23
2018-07-05T21:31:56.594Z,6.07
2018-07-05T21:34:39.074Z,6.07
2018-07-05T21:37:30.055Z,5.90
2018-07-05T21:40:15.377Z,5.90
2018-07-05T21:42:55.061Z,6.50
2018-07-05T21:45:36.344Z,5.87
2018-07-05T21:48:18.203Z,5.63
2018-07-05T21:51:00.137Z,6.10
2018-07-05T21:53:42.215Z,6.20
2018-07-05T21:56:22.957Z,6.30
2018-07-05T21:59:05.000Z,6.37
2018-07-05T22:01:42.167Z,6.47
2018-07-05T22:04:23.978Z,6.13
2018-07-05T22:07:06.609Z,5.63
2018-07-05T22:09:53.515Z,5.67
2018-07-05T22:12:42.149Z,6.53
2018-07-05T22:15:23.817Z,6.40
2018-07-05T22:21:01.457Z,6.70
2018-07-05T22:23:46.961Z,6.40
2018-07-05T22:26:33.328Z,6.37
2018-07-05T22:33:37.321Z,6.00
2018-07-05T22:36:18.390Z,6.17
2018-07-05T22:38:59.110Z,6.87
2018-07-05T22:41:42.874Z,7.33
2018-07-05T22:44:27.538Z,7.10
2018-07-05T22:47:10.263Z,6.60
2018-07-05T22:49:54.910Z,7.23
2018-07-05T22:52:36.618Z,7.80
2018-07-05T22:55:16.371Z,6.97
2018-07-05T22:58:01.033Z,8.20
2018-07-05T23:00:40.685Z,8.40
2018-07-05T23:03:15.477Z,8.00
2018-07-05T23:05:55.213Z,8.67
2018-07-05T23:08:44.153Z,8.37
2018-07-05T23:11:27.641Z,8.83
2018-07-05T23:14:09.101Z,8.90
2018-07-05T23:16:55.209Z,8.97
2018-07-05T23:19:34.951Z,9.53
2018-07-05T23:22:14.701Z,9.03
2018-07-05T23:25:01.985Z,9.27
2018-07-05T23:27:41.396Z,7.53
2018-07-05T23:30:24.748Z,9.77
2018-07-05T23:33:06.624Z,9.07
2018-07-05T23:35:52.649Z,9.80
2018-07-05T23:41:26.517Z,9.40
2018-07-05T23:44:09.795Z,9.40
2018-07-05T23:46:49.645Z,8.83
2018-07-05T23:49:29.323Z,9.60
2018-07-05T23:52:10.935Z,8.53
2018-07-05T23:54:50.664Z,7.87
2018-07-05T23:57:30.749Z,8.07
